Time;durP1;ratioP1;P1;durP2;ratioP2;P2;SDS_P1;SDS_P2;PMS_P1;PMS_P2;Temp;Humidity;BMP_temperature;BMP_pressure;BME280_temperature;BME280_humidity;BME280_pressure;Samples;Min_cycle;Max_cycle;Signal;HPM_P1;HPM_P2
2024/03/17 00:02:27;;;;;;;;;29.00;27.25;;;;;12.87;68.37;101304.19;146605;577;48010;-75
2024/03/17 00:05:26;;;;;;;;;34.25;28.25;;;;;12.86;68.56;101304.09;146611;569;46020;-72
2024/03/17 00:08:29;;;;;;;;;;;;;;;;;;;;;
2024/03/17 00:11:27;;;;;;;;;13.00;11.25;;;;;12.88;68.54;101302.47;146609;577;47008;-72
2024/03/17 00:14:25;;;;;;;;;17.25;13.00;;;;;12.87;68.40;101301.56;146607;652;46907;-73
2024/03/17 00:17:34;;;;;;;;;18.75;16.25;;;;;12.86;68.48;101304.97;146604;620;46008;-72
2024/03/17 00:20:26;;;;;;;;;15.00;13.50;;;;;12.82;68.03;101302.16;146606;573;46016;-71
2024/03/17 00:23:34;;;;;;;;;17.25;15.00;;;;;12.78;68.43;101298.50;146613;602;46020;-74
2024/03/17 00:26:37;;;;;;;;;15.75;14.75;;;;;12.71;68.31;101293.81;146609;597;47010;-75
2024/03/17 00:29:35;;;;;;;;;17.00;15.00;;;;;12.71;68.56;101301.63;146609;626;47008;-75
2024/03/17 00:32:27;;;;;;;;;15.00;12.00;;;;;12.65;69.25;101296.09;146606;576;46908;-76
2024/03/17 00:35:33;;;;;;;;;15.75;15.75;;;;;12.63;69.03;101298.59;146609;713;46020;-75
2024/03/17 00:38:29;;;;;;;;;30.00;25.25;;;;;12.60;68.66;101300.16;146601;653;47908;-73
2024/03/17 00:41:34;;;;;;;;;21.25;20.25;;;;;12.61;68.63;101307.13;146610;613;46021;-75
2024/03/17 00:44:28;;;;;;;;;14.50;13.50;;;;;12.61;68.71;101294.13;146608;612;46911;-75
2024/03/17 00:47:22;;;;;;;;;16.25;13.75;;;;;12.57;68.61;101290.47;146605;605;46021;-76
2024/03/17 00:50:29;;;;;;;;;16.00;12.75;;;;;12.61;68.38;101300.22;146603;685;46016;-73
2024/03/17 00:53:31;;;;;;;;;13.25;13.25;;;;;12.63;68.64;101292.50;146609;583;46008;-72
2024/03/17 00:56:33;;;;;;;;;9.75;9.75;;;;;12.66;68.66;101293.56;146605;586;47010;-72
2024/03/17 00:59:29;;;;;;;;;19.00;15.00;;;;;12.71;68.57;101293.81;146616;613;46020;-73
2024/03/17 01:02:23;;;;;;;;;13.50;10.75;;;;;12.69;68.13;101292.81;146602;598;47012;-74
2024/03/17 01:05:17;;;;;;;;;13.50;10.75;;;;;12.61;67.98;101291.53;146611;689;47008;-72
2024/03/17 01:08:13;;;;;;;;;9.25;8.25;;;;;12.50;67.98;101282.28;146605;571;46030;-73
2024/03/17 01:11:18;;;;;;;;;11.25;10.25;;;;;12.40;67.74;101291.31;146618;590;46029;-71
2024/03/17 01:14:13;;;;;;;;;10.00;8.50;;;;;12.33;68.42;101283.97;146605;622;47010;-72
2024/03/17 01:17:19;;;;;;;;;7.75;7.25;;;;;12.27;68.25;101287.16;146606;566;46031;-72
2024/03/17 01:20:20;;;;;;;;;10.75;9.50;;;;;12.23;68.70;101290.41;146616;658;46911;-71
2024/03/17 01:23:30;;;;;;;;;9.50;9.00;;;;;10.62;68.19;101003.75;146620;667;46008;-71
2024/03/17 01:26:24;;;;;;;;;14.25;11.25;;;;;12.15;69.30;101273.47;146615;597;46915;-72
2024/03/17 01:29:34;;;;;;;;;14.25;12.75;;;;;12.15;68.45;101286.47;146612;576;46008;-72
2024/03/17 01:32:39;;;;;;;;;10.50;9.75;;;;;12.14;68.41;101287.31;146604;571;46910;-72
2024/03/17 01:35:41;;;;;;;;;12.00;11.75;;;;;12.13;69.45;101285.53;146618;601;46021;-74
2024/03/17 01:38:38;;;;;;;;;14.75;12.50;;;;;12.10;69.27;101286.25;146606;566;47010;-73
2024/03/17 01:41:39;;;;;;;;;14.25;13.00;;;;;12.09;69.07;101289.69;146609;564;46008;-72
2024/03/17 01:44:41;;;;;;;;;15.75;15.75;;;;;12.11;69.47;101287.16;146606;574;47010;-72
2024/03/17 01:47:38;;;;;;;;;17.25;13.25;;;;;12.15;68.98;101283.88;146604;585;46021;-74
2024/03/17 01:50:45;;;;;;;;;14.50;12.75;;;;;12.19;68.56;101286.75;146607;589;46016;-73
2024/03/17 01:53:44;;;;;;;;;13.50;12.25;;;;;12.25;68.79;101288.78;146608;572;47008;-72
2024/03/17 01:56:39;;;;;;;;;10.00;10.00;;;;;12.30;68.99;101286.41;146608;592;47016;-73
2024/03/17 01:59:43;;;;;;;;;13.50;10.00;;;;;12.36;68.75;101289.34;146611;571;46020;-72
2024/03/17 02:02:39;;;;;;;;;12.75;11.00;;;;;12.38;68.75;101285.13;146607;565;46017;-72
2024/03/17 02:05:37;;;;;;;;;14.75;12.25;;;;;12.40;68.87;101286.12;146611;573;47008;-74
2024/03/17 02:08:29;;;;;;;;;15.00;14.00;;;;;12.41;68.61;101283.56;146605;575;47016;-72
2024/03/17 02:11:45;;;;;;;;;13.25;12.00;;;;;12.41;67.86;101278.38;146607;571;47008;-74
2024/03/17 02:14:46;;;;;;;;;16.75;14.00;;;;;12.45;68.65;101282.91;146606;583;46016;-72
2024/03/17 02:17:44;;;;;;;;;11.00;10.00;;;;;12.50;68.28;101287.50;146603;570;47009;-72
2024/03/17 02:21:01;;;;;;;;;15.25;14.25;;;;;12.49;68.65;101281.37;146606;604;47010;-72
2024/03/17 02:23:59;;;;;;;;;14.50;14.00;;;;;12.41;68.61;101278.38;146613;599;46008;-73
2024/03/17 02:26:58;;;;;;;;;17.75;15.00;;;;;12.37;68.55;101276.44;146609;602;46010;-73
2024/03/17 02:29:57;;;;;;;;;14.75;12.00;;;;;12.34;68.80;101275.38;146608;569;47008;-72
2024/03/17 02:33:08;;;;;;;;;17.00;13.75;;;;;12.26;68.74;101267.16;146606;585;47011;-73
2024/03/17 02:36:06;;;;;;;;;13.25;13.25;;;;;12.22;69.28;101276.50;146610;565;46020;-73
2024/03/17 02:42:27;;;;;;;;;11.25;9.75;;;;;12.17;68.93;101282.28;146610;686;46020;-73
2024/03/17 02:45:37;;;;;;;;;13.00;12.25;;;;;12.15;69.96;101279.59;146613;617;46016;-74
2024/03/17 02:48:34;;;;;;;;;15.25;13.00;;;;;12.17;69.77;101277.06;146607;630;46020;-74
2024/03/17 02:51:35;;;;;;;;;17.25;14.25;;;;;12.20;69.53;101280.72;146609;600;46028;-72
2024/03/17 02:54:42;;;;;;;;;;;;;;;;;;;;;
2024/03/17 02:57:51;;;;;;;;;19.50;17.25;;;;;12.24;70.19;101272.31;146605;609;46016;-73
2024/03/17 03:00:57;;;;;;;;;17.00;15.50;;;;;12.22;69.93;101276.50;146609;616;46020;-73
2024/03/17 03:03:58;;;;;;;;;15.75;14.75;;;;;12.19;69.54;101273.75;146607;691;47016;-73
2024/03/17 03:06:51;;;;;;;;;15.25;14.25;;;;;12.16;69.80;101270.09;146612;570;46020;-73
2024/03/17 03:09:54;;;;;;;;;16.00;12.50;;;;;12.14;69.91;101266.50;146608;565;46912;-73
2024/03/17 03:13:07;;;;;;;;;15.00;14.25;;;;;12.14;69.84;101267.41;146601;667;47008;-74
2024/03/17 03:16:03;;;;;;;;;14.50;13.50;;;;;12.13;70.06;101277.72;146605;647;46027;-71
2024/03/17 03:18:58;;;;;;;;;21.25;16.75;;;;;12.12;70.54;101270.72;146603;569;46909;-72
2024/03/17 03:22:05;;;;;;;;;14.75;13.25;;;;;12.12;69.73;101278.53;146604;575;46016;-71
2024/03/17 03:25:22;;;;;;;;;16.00;14.25;;;;;12.09;70.20;101270.59;146612;628;46021;-72
2024/03/17 03:28:23;;;;;;;;;13.75;12.25;;;;;12.14;70.92;101280.41;146607;619;47010;-72
2024/03/17 03:31:25;;;;;;;;;22.25;21.00;;;;;12.19;70.64;101281.56;146612;613;46008;-72
2024/03/17 03:34:26;;;;;;;;;24.25;22.50;;;;;12.23;70.86;101277.41;146605;601;46911;-74
2024/03/17 03:37:25;;;;;;;;;24.50;23.00;;;;;11.50;70.48;101155.69;146612;577;46020;-76
2024/03/17 03:40:27;;;;;;;;;15.50;13.25;;;;;12.29;70.75;101284.63;146608;641;47010;-74
2024/03/17 03:43:28;;;;;;;;;18.50;16.75;;;;;12.30;70.53;101289.91;146611;617;47020;-78
2024/03/17 03:46:31;;;;;;;;;19.75;18.00;;;;;12.30;70.70;101283.81;146604;598;47010;-72
2024/03/17 03:49:25;;;;;;;;;20.75;19.00;;;;;12.32;70.66;101293.50;146605;602;46020;-73
2024/03/17 03:52:41;;;;;;;;;21.50;20.50;;;;;12.33;70.59;101291.78;146608;614;46016;-72
2024/03/17 03:55:45;;;;;;;;;18.50;18.50;;;;;12.35;70.65;101292.78;146608;589;47008;-73
2024/03/17 03:58:39;;;;;;;;;19.75;18.75;;;;;12.36;70.63;101292.84;146606;573;46016;-73
2024/03/17 04:01:31;;;;;;;;;22.00;20.00;;;;;12.38;70.77;101290.34;146612;698;46044;-73
2024/03/17 04:04:33;;;;;;;;;12.75;11.50;;;;;12.40;70.70;101294.81;146604;619;47010;-72
2024/03/17 04:07:27;;;;;;;;;14.25;14.25;;;;;12.42;70.92;101297.47;146610;592;47008;-74
2024/03/17 04:10:25;;;;;;;;;31.75;27.75;;;;;12.46;70.72;101308.13;146606;603;46027;-73
2024/03/17 04:13:25;;;;;;;;;39.50;32.25;;;;;12.52;70.82;101307.53;146608;606;47020;-73
2024/03/17 04:16:23;;;;;;;;;41.50;33.75;;;;;12.58;71.03;101309.56;146607;569;47010;-73
2024/03/17 04:19:41;;;;;;;;;30.75;27.00;;;;;12.64;71.07;101308.19;146605;580;46020;-74
2024/03/17 04:22:38;;;;;;;;;30.25;27.00;;;;;12.69;70.99;101313.62;146605;631;47013;-72
2024/03/17 04:25:44;;;;;;;;;;;;;;;;;;;;;
2024/03/17 04:28:38;;;;;;;;;26.75;24.00;;;;;12.78;70.72;101315.84;146605;618;46016;-71
2024/03/17 04:31:37;;;;;;;;;28.75;27.50;;;;;12.80;70.66;101322.88;146611;605;46008;-71
2024/03/17 04:34:39;;;;;;;;;25.00;22.25;;;;;12.80;70.42;101317.66;146608;595;46016;-71
2024/03/17 04:38:01;;;;;;;;;25.50;23.50;;;;;10.95;69.35;100998.66;146605;600;47009;-70
2024/03/17 04:41:07;;;;;;;;;24.75;21.00;;;;;12.82;70.67;101312.56;146605;594;48010;-70
2024/03/17 04:43:59;;;;;;;;;23.75;20.25;;;;;12.80;70.62;101324.59;146609;607;46020;-71
2024/03/17 04:46:55;;;;;;;;;22.50;17.75;;;;;12.80;70.58;101322.88;146607;578;46017;-71
2024/03/17 04:50:12;;;;;;;;;21.50;18.50;;;;;12.82;70.99;101318.66;146606;583;46020;-73
2024/03/17 04:53:08;;;;;;;;;19.75;17.00;;;;;12.82;70.65;101328.19;146606;584;48010;-72
2024/03/17 04:56:14;;;;;;;;;20.50;17.25;;;;;12.82;70.11;101326.47;146609;630;47020;-71
2024/03/17 04:59:18;;;;;;;;;20.25;19.00;;;;;12.81;71.17;101335.09;146604;629;47010;-71
2024/03/17 05:02:23;;;;;;;;;18.25;17.25;;;;;12.77;70.88;101335.72;146607;588;46008;-70
2024/03/17 05:05:20;;;;;;;;;17.25;14.25;;;;;12.74;71.55;101345.09;146609;587;46010;-71
2024/03/17 05:08:16;;;;;;;;;15.50;12.25;;;;;12.74;72.07;101339.88;146611;565;47008;-71
2024/03/17 05:11:10;;;;;;;;;17.25;14.50;;;;;12.76;72.37;101340.88;146608;658;46010;-71
2024/03/17 05:14:11;;;;;;;;;15.00;13.50;;;;;12.79;72.45;101344.53;146608;614;47008;-72
2024/03/17 05:17:04;;;;;;;;;13.50;12.50;;;;;12.82;72.83;101336.88;146606;728;47016;-70
2024/03/17 05:20:03;;;;;;;;;13.00;11.50;;;;;12.91;72.88;101346.88;146603;581;47020;-70
2024/03/17 05:23:05;;;;;;;;;18.25;16.75;;;;;12.97;72.57;101346.31;146602;588;47016;-71
2024/03/17 05:26:16;;;;;;;;;24.50;21.00;;;;;13.00;71.83;101346.47;146611;630;46020;-71
2024/03/17 05:29:37;;;;;;;;;26.00;22.75;;;;;13.03;72.25;101341.41;146603;570;46016;-69
2024/03/17 05:32:33;;;;;;;;;31.00;28.00;;;;;13.06;72.61;101349.38;146611;626;46020;-71
2024/03/17 05:35:28;;;;;;;;;27.00;24.25;;;;;13.07;72.08;101357.25;146606;609;47012;-71
2024/03/17 05:38:24;;;;;;;;;21.75;17.50;;;;;13.06;72.05;101354.59;146611;652;46021;-71
2024/03/17 05:41:38;;;;;;;;;16.00;14.25;;;;;13.09;71.70;101353.03;146607;595;46010;-71
2024/03/17 05:44:49;;;;;;;;;16.75;13.00;;;;;13.12;72.44;101353.19;146606;613;47008;-72
2024/03/17 05:48:06;;;;;;;;;16.50;14.50;;;;;13.18;72.83;101353.50;146607;602;46918;-71
2024/03/17 05:51:05;;;;;;;;;13.50;12.75;;;;;13.29;72.26;101356.66;146601;570;47010;-73
2024/03/17 05:54:00;;;;;;;;;14.75;14.00;;;;;13.36;73.07;101358.78;146609;607;46016;-73
2024/03/17 05:57:01;;;;;;;;;23.50;19.75;;;;;13.43;72.60;101357.38;146611;564;47008;-73
2024/03/17 05:59:55;;;;;;;;;33.50;26.75;;;;;13.49;72.69;101370.69;146604;578;46032;-72
2024/03/17 06:02:48;;;;;;;;;29.75;26.00;;;;;13.56;72.85;101375.38;146609;590;47042;-73
2024/03/17 06:05:46;;;;;;;;;28.00;23.50;;;;;13.63;72.64;101369.66;146606;675;46910;-70
2024/03/17 06:08:46;;;;;;;;;36.50;29.50;;;;;13.69;72.53;101374.28;146613;585;46020;-71
2024/03/17 06:11:42;;;;;;;;;28.50;26.00;;;;;13.77;71.99;101382.44;146607;575;46016;-70
2024/03/17 06:14:35;;;;;;;;;32.50;28.00;;;;;13.83;71.81;101391.50;146612;595;46021;-72
2024/03/17 06:17:43;;;;;;;;;32.75;24.75;;;;;13.92;70.47;101384.91;146603;640;47016;-72
2024/03/17 06:20:39;;;;;;;;;28.75;25.25;;;;;13.96;70.83;101366.91;146603;564;48008;-74
2024/03/17 06:23:38;;;;;;;;;31.75;28.00;;;;;14.05;70.46;101382.97;146604;578;47012;-72
2024/03/17 06:26:37;;;;;;;;;68.00;54.50;;;;;14.10;70.07;101384.06;146613;591;46008;-73
2024/03/17 06:29:30;;;;;;;;;64.75;49.75;;;;;14.01;69.67;101348.84;146605;726;47018;-71
2024/03/17 06:32:25;;;;;;;;;41.50;35.50;;;;;14.35;69.19;101389.56;146609;588;46020;-72
2024/03/17 06:35:26;;;;;;;;;35.25;31.00;;;;;14.45;68.54;101390.03;146601;587;47010;-72
2024/03/17 06:38:27;;;;;;;;;33.25;29.00;;;;;14.52;68.43;101388.66;146612;606;47008;-72
2024/03/17 06:41:29;;;;;;;;;36.50;29.75;;;;;14.62;68.73;101390.88;146606;572;46016;-70
2024/03/17 06:44:27;;;;;;;;;35.25;32.50;;;;;14.81;68.94;101391.69;146609;617;47021;-70
2024/03/17 06:47:22;;;;;;;;;32.00;28.00;;;;;15.00;69.28;101389.06;146606;595;46010;-70
2024/03/17 06:50:18;;;;;;;;;36.50;33.00;;;;;15.20;67.87;101400.38;146606;590;46020;-70
2024/03/17 06:53:10;;;;;;;;;35.00;31.25;;;;;15.34;67.93;101403.59;146605;605;46016;-70
2024/03/17 06:56:04;;;;;;;;;40.25;33.50;;;;;15.46;67.38;101407.63;146608;582;46020;-74
2024/03/17 06:59:08;;;;;;;;;29.75;27.50;;;;;15.58;66.13;101399.41;146607;652;47012;-75
2024/03/17 07:02:20;;;;;;;;;27.50;23.75;;;;;15.69;66.29;101398.12;146611;647;47008;-73
2024/03/17 07:05:32;;;;;;;;;33.00;29.00;;;;;15.81;65.45;101402.09;146607;622;46027;-73
2024/03/17 07:08:30;;;;;;;;;24.00;22.00;;;;;15.92;65.53;101398.19;146608;575;46008;-71
2024/03/17 07:11:33;;;;;;;;;51.25;39.00;;;;;16.04;65.57;101403.00;146608;582;46909;-74
2024/03/17 07:14:31;;;;;;;;;28.00;25.25;;;;;16.14;65.15;101397.34;146606;604;47008;-73
2024/03/17 07:17:30;;;;;;;;;24.00;22.75;;;;;16.20;64.54;101394.03;146605;709;46016;-72
2024/03/17 07:20:30;;;;;;;;;26.75;25.25;;;;;16.28;63.76;101396.13;146602;659;46020;-73
2024/03/17 07:23:30;;;;;;;;;33.25;29.25;;;;;16.29;63.87;101394.41;146606;573;46025;-73
2024/03/17 07:26:31;;;;;;;;;26.75;23.75;;;;;16.31;63.68;101390.13;146610;565;47008;-73
2024/03/17 07:29:24;;;;;;;;;21.75;20.00;;;;;16.35;64.07;101397.25;146607;619;47010;-84
2024/03/17 07:32:20;;;;;;;;;23.00;20.50;;;;;16.40;64.52;101393.97;146610;587;46020;-79
2024/03/17 07:35:17;;;;;;;;;20.00;17.75;;;;;16.47;63.51;101384.62;146609;603;46010;-80
2024/03/17 07:38:15;;;;;;;;;25.25;23.00;;;;;16.58;63.66;101396.41;146613;565;46020;-80
2024/03/17 07:41:26;;;;;;;;;21.75;18.75;;;;;16.74;64.66;101391.75;146606;569;47012;-79
2024/03/17 07:44:28;;;;;;;;;20.00;16.00;;;;;16.91;63.83;101398.50;146609;626;46021;-78
2024/03/17 07:47:22;;;;;;;;;26.50;23.00;;;;;16.97;62.11;101401.34;146609;578;46010;-81
2024/03/17 07:50:23;;;;;;;;;25.00;24.00;;;;;16.91;62.01;101403.75;146604;607;47020;-78
2024/03/17 07:53:38;;;;;;;;;;;;;;;;;;;;;
2024/03/17 07:56:41;;;;;;;;;28.00;26.00;;;;;16.69;63.45;101402.03;146609;595;47020;-80
2024/03/17 07:59:42;;;;;;;;;20.50;18.75;;;;;16.65;63.72;101400.16;146608;583;46016;-79
2024/03/17 08:02:52;;;;;;;;;20.50;17.00;;;;;16.62;63.69;101402.66;146611;653;47008;-80
2024/03/17 08:05:55;;;;;;;;;16.25;14.00;;;;;16.59;63.66;101398.19;146600;592;47012;-79
2024/03/17 08:08:47;;;;;;;;;16.50;16.50;;;;;16.68;63.63;101407.22;146607;584;46020;-78
2024/03/17 08:11:58;;;;;;;;;19.50;14.00;;;;;16.78;64.05;101397.16;146607;601;46017;-78
2024/03/17 08:15:10;;;;;;;;;13.75;13.75;;;;;16.98;63.65;101399.66;146605;594;46020;-78
2024/03/17 08:18:08;;;;;;;;;20.75;19.00;;;;;17.25;62.01;101400.59;146603;596;46016;-76
2024/03/17 08:21:19;;;;;;;;;18.25;17.75;;;;;17.43;61.88;101397.72;146603;712;46021;-79
2024/03/17 08:24:23;;;;;;;;;18.50;17.50;;;;;17.53;60.79;101393.66;146605;595;46016;-79
2024/03/17 08:27:19;;;;;;;;;13.75;13.00;;;;;17.65;61.57;101399.31;146610;570;47010;-79
2024/03/17 08:30:22;;;;;;;;;14.00;11.25;;;;;17.70;61.40;101389.87;146605;609;46016;-78
2024/03/17 08:33:27;;;;;;;;;19.50;17.00;;;;;17.64;61.18;101389.69;146609;594;46020;-78
2024/03/17 08:36:25;;;;;;;;;21.50;18.00;;;;;17.52;61.33;101382.28;146606;581;46010;-81
2024/03/17 08:39:22;;;;;;;;;14.00;13.00;;;;;17.41;61.54;101388.91;146611;723;47008;-80
2024/03/17 08:42:36;;;;;;;;;8.25;8.25;;;;;17.30;61.93;101390.28;146609;673;46017;-84
2024/03/17 08:45:34;;;;;;;;;16.25;14.50;;;;;17.16;62.45;101387.16;146617;714;46020;-81
2024/03/17 08:48:33;;;;;;;;;16.75;15.25;;;;;17.09;63.57;101395.66;146607;639;48011;-78
2024/03/17 08:51:35;;;;;;;;;15.25;12.00;;;;;17.20;63.26;101394.31;146600;611;47008;-81
2024/03/17 08:54:43;;;;;;;;;13.25;11.50;;;;;17.40;63.18;101389.75;146606;569;46016;-83
2024/03/17 08:57:40;;;;;;;;;10.75;9.75;;;;;17.61;62.15;101389.59;146610;564;46008;-78
2024/03/17 09:00:33;;;;;;;;;12.00;12.00;;;;;17.85;61.89;101386.91;146611;656;46016;-81
2024/03/17 09:03:28;;;;;;;;;18.50;15.00;;;;;18.12;61.91;101386.00;146611;611;46008;-81
2024/03/17 09:06:47;;;;;;;;;;;;;;;;;;;;;
2024/03/17 09:09:53;;;;;;;;;18.25;15.50;;;;;18.57;59.48;101377.72;146612;573;46020;-80
2024/03/17 09:12:47;;;;;;;;;15.75;14.50;;;;;18.54;59.65;101385.53;146603;574;47010;-80
2024/03/17 09:16:18;;;;;;;;;28.25;24.75;;;;;18.41;59.49;101373.72;146611;575;47020;-82
2024/03/17 09:19:16;;;;;;;;;20.25;16.00;;;;;18.33;60.66;101373.53;146607;569;47017;-80
2024/03/17 09:22:29;;;;;;;;;15.00;13.25;;;;;18.13;60.18;101383.44;146603;613;47008;-78
2024/03/17 09:25:33;;;;;;;;;13.75;12.00;;;;;17.81;58.94;101379.75;146601;635;47010;-80
2024/03/17 09:28:34;;;;;;;;;14.75;14.00;;;;;17.44;61.78;101386.37;146609;579;46025;-80
2024/03/17 09:31:35;;;;;;;;;16.75;16.75;;;;;17.13;63.30;101384.44;146605;586;47010;-79
2024/03/17 09:34:30;;;;;;;;;14.75;14.75;;;;;16.91;63.81;101388.03;146609;571;47008;-79
2024/03/17 09:37:31;;;;;;;;;16.75;14.00;;;;;16.69;64.64;101390.66;146611;589;46016;-80
2024/03/17 09:40:32;;;;;;;;;13.25;13.00;;;;;16.54;64.87;101383.13;146611;650;46026;-79
2024/03/17 09:43:40;;;;;;;;;14.50;13.00;;;;;16.37;65.78;101382.50;146606;579;47010;-80
2024/03/17 09:46:35;;;;;;;;;16.75;15.00;;;;;16.23;64.87;101388.91;146610;661;47020;-80
2024/03/17 09:49:59;;;;;;;;;12.50;10.75;;;;;16.11;64.62;101398.09;146608;640;46011;-79
2024/03/17 09:52:55;;;;;;;;;8.50;7.50;;;;;15.99;64.38;101400.22;146605;611;47008;-79
2024/03/17 09:55:51;;;;;;;;;14.25;13.75;;;;;15.85;65.56;101401.38;146613;604;48013;-83
2024/03/17 09:58:44;;;;;;;;;17.50;13.75;;;;;15.73;65.64;101404.38;146610;620;46020;-79
2024/03/17 10:02:24;;;;;;;;;35.00;29.25;;;;;13.92;68.79;101117.28;146606;682;47010;-81
2024/03/17 10:05:48;;;;;;;;;41.50;33.00;;;;;13.87;70.33;101113.59;146610;723;46020;-79
2024/03/17 10:08:55;;;;;;;;;55.25;43.00;;;;;15.52;71.58;101411.31;146607;584;46907;-85
2024/03/17 10:11:51;;;;;;;;;54.25;40.50;;;;;15.51;73.27;101407.78;146612;609;47008;-72
2024/03/17 10:15:11;;;;;;;;;37.00;30.25;;;;;15.48;71.83;101419.03;146607;603;46909;-72
2024/03/17 10:18:27;;;;;;;;;46.00;37.25;;;;;15.50;74.18;101423.44;146611;605;46008;-72
2024/03/17 10:21:37;;;;;;;;;43.25;35.75;;;;;15.46;73.53;101423.28;146608;647;46010;-73
2024/03/17 10:24:33;;;;;;;;;40.25;30.75;;;;;15.42;74.32;101421.38;146603;565;47008;-73
2024/03/17 10:27:38;;;;;;;;;38.00;32.50;;;;;15.37;73.52;101422.00;146607;582;46010;-72
2024/03/17 10:30:36;;;;;;;;;34.50;29.50;;;;;15.30;73.77;101417.34;146609;612;46008;-72
2024/03/17 10:33:31;;;;;;;;;42.50;34.75;;;;;15.23;74.45;101424.94;146607;574;47010;-73
2024/03/17 10:36:36;;;;;;;;;29.00;25.00;;;;;15.14;74.23;101421.91;146610;579;46020;-72
2024/03/17 10:39:42;;;;;;;;;21.25;16.75;;;;;15.01;73.32;101417.88;146607;571;46910;-72
2024/03/17 10:42:38;;;;;;;;;194.00;172.00;;;;;14.92;74.35;101427.00;146612;603;46020;-73
2024/03/17 10:45:52;;;;;;;;;91.67;81.33;;;;;14.85;74.10;101418.00;146612;664;47010;-72
2024/03/17 10:48:50;;;;;;;;;171.75;151.50;;;;;14.75;74.48;101418.41;146621;579;47009;-73
2024/03/17 10:52:05;;;;;;;;;44.25;37.00;;;;;14.69;75.16;101418.12;146614;627;46016;-72
2024/03/17 10:55:04;;;;;;;;;61.75;49.50;;;;;14.67;76.00;101418.09;146606;642;46021;-72
2024/03/17 10:58:19;;;;;;;;;52.25;42.50;;;;;14.73;75.15;101412.22;146605;612;47017;-71
2024/03/17 11:01:29;;;;;;;;;28.75;24.50;;;;;14.82;76.76;101406.53;146608;575;47008;-71
2024/03/17 11:04:24;;;;;;;;;59.75;47.25;;;;;14.87;76.56;101394.59;146610;578;46010;-70
2024/03/17 11:07:45;;;;;;;;;33.25;27.50;;;;;14.92;75.88;101407.03;146612;636;46020;-72
2024/03/17 11:10:42;;;;;;;;;22.00;19.75;;;;;14.98;77.11;101401.16;146606;566;46017;-71
2024/03/17 11:13:39;;;;;;;;;22.75;19.00;;;;;15.02;76.28;101395.25;146610;659;47008;-71
2024/03/17 11:16:33;;;;;;;;;52.25;43.50;;;;;15.07;75.65;101398.06;146607;616;47016;-71
2024/03/17 11:19:40;;;;;;;;;19.50;19.00;;;;;15.12;74.64;101397.44;146615;570;46008;-71
2024/03/17 11:22:53;;;;;;;;;32.25;28.50;;;;;15.21;73.62;101386.50;146607;631;46016;-71
2024/03/17 11:25:47;;;;;;;;;152.00;134.25;;;;;15.30;75.40;101386.91;146611;558;46020;-71
2024/03/17 11:28:53;;;;;;;;;36.00;30.75;;;;;15.41;74.77;101377.75;146610;613;46016;-71
2024/03/17 11:31:55;;;;;;;;;128.00;105.33;;;;;15.53;74.04;101373.91;146614;580;47020;-72
2024/03/17 11:34:51;;;;;;;;;52.25;41.25;;;;;15.57;72.54;101368.84;146613;564;46010;-72
2024/03/17 11:37:55;;;;;;;;;13.50;11.50;;;;;15.58;72.83;101375.87;146607;570;47008;-71
2024/03/17 11:40:51;;;;;;;;;22.75;21.00;;;;;15.61;74.25;101362.03;146601;569;46017;-71
2024/03/17 11:43:53;;;;;;;;;21.50;20.00;;;;;15.72;75.56;101370.34;146611;582;46020;-72
2024/03/17 11:46:55;;;;;;;;;35.75;30.25;;;;;15.80;75.01;101359.37;146607;705;46016;-71
2024/03/17 11:49:51;;;;;;;;;31.25;26.75;;;;;15.86;74.79;101354.38;146609;620;46020;-72
2024/03/17 11:52:45;;;;;;;;;30.75;27.25;;;;;15.93;74.08;101352.91;146607;563;47016;-72
2024/03/17 11:55:46;;;;;;;;;30.25;28.75;;;;;16.00;74.22;101349.69;146603;680;47010;-73
2024/03/17 11:58:50;;;;;;;;;36.75;30.75;;;;;16.07;72.28;101345.56;146604;695;46016;-72
2024/03/17 12:01:53;;;;;;;;;37.00;32.75;;;;;16.03;71.29;101339.34;146611;612;47008;-73
2024/03/17 12:04:46;;;;;;;;;39.25;32.00;;;;;16.13;71.95;101345.81;146604;575;47017;-72
2024/03/17 12:07:50;;;;;;;;;40.00;33.25;;;;;16.27;71.25;101342.00;146611;605;46020;-72
2024/03/17 12:11:02;;;;;;;;;38.75;30.75;;;;;16.41;72.14;101342.53;146605;580;46032;-73
2024/03/17 12:14:01;;;;;;;;;39.50;32.25;;;;;16.61;72.27;101336.31;146611;774;46020;-73
2024/03/17 12:17:19;;;;;;;;;36.00;30.25;;;;;15.35;70.94;101078.75;146608;577;46017;-70
2024/03/17 12:20:36;;;;;;;;;26.75;25.00;;;;;16.99;67.21;101335.91;146608;576;46008;-71
2024/03/17 12:23:39;;;;;;;;;19.50;16.75;;;;;17.02;66.35;101326.44;146604;569;47010;-73
2024/03/17 12:26:35;;;;;;;;;19.25;19.00;;;;;17.13;66.46;101325.91;146602;572;46020;-73
2024/03/17 12:29:39;;;;;;;;;15.25;13.00;;;;;17.28;63.88;101331.66;146605;580;47010;-73
2024/03/17 12:32:44;;;;;;;;;17.50;14.75;;;;;17.44;63.79;101328.69;146607;639;47009;-70
2024/03/17 12:35:42;;;;;;;;;14.25;13.25;;;;;17.62;62.09;101323.19;146605;577;47012;-73
2024/03/17 12:38:40;;;;;;;;;14.00;11.00;;;;;17.80;61.35;101319.41;146609;712;46020;-74
2024/03/17 12:41:39;;;;;;;;;10.75;10.25;;;;;17.92;59.78;101319.78;146604;617;46912;-72
2024/03/17 12:44:47;;;;;;;;;12.00;10.75;;;;;18.03;58.63;101312.22;146610;678;46020;-73
2024/03/17 12:47:52;;;;;;;;;10.00;10.00;;;;;18.13;59.29;101309.03;146604;595;47011;-72
2024/03/17 12:51:02;;;;;;;;;12.25;11.00;;;;;18.21;58.27;101310.16;146612;581;46020;-74
2024/03/17 12:54:24;;;;;;;;;12.00;11.00;;;;;17.50;59.19;101162.84;146607;573;47013;-72
2024/03/17 13:00:34;;;;;;;;;16.00;14.25;;;;;18.29;58.35;101299.91;146607;615;46016;-75
2024/03/17 13:03:50;;;;;;;;;;;;;;;;;;;;;
2024/03/17 13:06:43;;;;;;;;;13.25;10.75;;;;;18.30;58.17;101285.91;146609;606;46909;-74
2024/03/17 13:09:48;;;;;;;;;14.25;12.00;;;;;17.35;59.41;101130.91;146611;617;47017;-72
2024/03/17 13:12:44;;;;;;;;;6.25;5.25;;;;;18.31;56.59;101288.56;146608;570;46016;-74
2024/03/17 13:15:43;;;;;;;;;14.50;12.00;;;;;18.27;56.64;101285.81;146617;607;46008;-74
2024/03/17 13:19:03;;;;;;;;;15.50;12.50;;;;;18.27;58.87;101288.44;146604;595;47010;-74
2024/03/17 13:21:56;;;;;;;;;15.75;13.00;;;;;17.99;57.85;101224.66;146608;586;48008;-70
2024/03/17 13:24:52;;;;;;;;;11.50;10.50;;;;;18.35;55.63;101281.66;146606;595;47012;-72
2024/03/17 13:27:50;;;;;;;;;15.50;13.00;;;;;18.37;55.84;101283.47;146603;622;46020;-75
2024/03/17 13:30:47;;;;;;;;;15.00;13.75;;;;;18.40;55.52;101282.69;146606;570;47010;-75
2024/03/17 13:33:56;;;;;;;;;18.50;14.75;;;;;18.42;57.24;101288.88;146612;594;46008;-75
2024/03/17 13:37:09;;;;;;;;;13.25;11.00;;;;;18.44;57.31;101282.84;146608;591;46016;-74
2024/03/17 13:40:21;;;;;;;;;14.50;13.50;;;;;18.53;57.39;101283.91;146610;695;46021;-74
2024/03/17 13:43:21;;;;;;;;;13.00;10.50;;;;;18.59;56.20;101289.34;146606;705;46010;-75
2024/03/17 13:46:16;;;;;;;;;18.25;15.00;;;;;18.59;54.89;101281.47;146602;569;47008;-74
2024/03/17 13:49:17;;;;;;;;;13.25;13.00;;;;;18.59;53.48;101278.84;146606;635;46911;-72
2024/03/17 13:52:19;;;;;;;;;15.25;14.75;;;;;18.50;56.25;101279.47;146610;592;47008;-73
2024/03/17 13:55:27;;;;;;;;;13.50;13.50;;;;;18.49;57.08;101271.56;146607;634;46912;-75
2024/03/17 13:58:23;;;;;;;;;15.75;15.25;;;;;18.53;56.16;101271.66;146604;570;46028;-74
2024/03/17 14:01:21;;;;;;;;;13.50;11.25;;;;;18.50;56.49;101274.22;146606;590;46017;-75
2024/03/17 14:04:21;;;;;;;;;13.75;12.75;;;;;18.31;57.39;101270.19;146634;623;45008;-74